Kettle Falls, WA (99141)

8:30 AM PDT on September 22, 2014 (GMT -0700)
RAWS KETTLE FALLS WA US | Change Station
CLOSE
Current Station
Personal Weather Station
Location: Kettle Falls, WA
Elevation: 1310 ft
Nearby Weather Stations

Elev 1310 ft 48.61 °N, 118.12 °W | Updated 53 minutes ago

Partly Cloudy
Partly Cloudy
52 °F
Feels Like 52 °F
N
1
Wind Variable Wind from SE
Gusts 5.0 mph

Today
High -- | Low -- °F
--% Chance of Precip.
Yesterday
High -- | Low -- °F
Precip. -- in
6:39 AM 6:49 PM
Waning Crescent, 2% visible
Pressure 29.92 in
Visibility 10.0 miles
Clouds Clear
Dew Point 48 °F
Humidity 86%
Rainfall 0.00 in
Snow Depth 0 in , 1 in , 0 in
UV 1 out of 12
Pollen 7.30 out of 12
PM2.5 Moderate
Flu Activity Not available.
METAR KDEW 221453Z AUTO 00000KT 10SM CLR 13/07 A2994 RMK AO2 SLP131 T01330072 53005

More Conditions Fewer Conditions

Pressure 29.92 in
Visibility 10.0 miles
Clouds Clear
Dew Point 48 °F
Humidity 86%
Rainfall 0.00 in
Snow Depth 0 in , 1 in , 0 in
UV 1 out of 12
Pollen 7.30 out of 12
PM2.5 Moderate
Flu Activity Not available.
METAR KDEW 221453Z AUTO 00000KT 10SM CLR 13/07 A2994 RMK AO2 SLP131 T01330072 53005

More Conditions Fewer Conditions

10-Day Weather Forecast

Almanac

Astronomy

Sep. 22, 2014 Rise Set
Actual Time 6:39 AM PDT 6:49 PM PDT
Civil Twilight 6:07 AM PDT 7:21 PM PDT
Nautical Twilight 5:30 AM PDT 7:58 PM PDT
Astronomical Twilight 4:52 AM PDT 8:36 PM PDT
Moon 5:07 AM PDT 6:02 PM PDT
Length of Visible Light 13h 13m
Length of Day
12h 10m
Tomorrow will be 3m 32s shorter.
Waning Crescent, 2% of the Moon is Illuminated
Today
Waning Crescent
Sep 24
New
Oct 1
First Quarter
Oct 8
Full
Oct 15
Last Quarter

Today's Extremes

State Highs State Lows

Community

WunderPhotos

Upload Photos

1,755,464 photos uploaded!

Nearby

Air Quality

  Air Quality AQ Index Pollutant
Yesterday Good
PM10
Yesterday Good
OZONE
Current Moderate
PM2.5
Monday Good
PM10
Monday Good
OZONE

Snow Depth

Station Depth Elevation
White Pass E.S. 0 in 4500 ft
Moses Mountain 1 in 5300 ft
Spirit Lake 0 in 3120 ft
Morse Lake 0 in 5400 ft
Stevens Pass 0 in 4070 ft

Earthquake Activity

City Distance Mag. Time & Date
No recent earthquake activity has been reported nearby.
Minimum magnitude displayed is 2.5.

Coastal Water Temperatures

Place Temperature
No Stations Reporting

Nearby Weather Stations